sensor_id;sensor_type;location;lat;lon;timestamp;P1;durP1;ratioP1;P2;durP2;ratioP2
76336;SDS011;65157;50.082;18.178;2023-01-23T00:01:16;29.50;;;13.50;;
76336;SDS011;65157;50.082;18.178;2023-01-23T00:03:46;30.80;;;13.10;;
76336;SDS011;65157;50.082;18.178;2023-01-23T00:06:13;36.50;;;14.60;;
76336;SDS011;65157;50.082;18.178;2023-01-23T00:08:42;44.20;;;16.80;;
76336;SDS011;65157;50.082;18.178;2023-01-23T00:11:11;37.40;;;17.10;;
76336;SDS011;65157;50.082;18.178;2023-01-23T00:13:40;51.40;;;18.80;;
76336;SDS011;65157;50.082;18.178;2023-01-23T00:16:10;45.80;;;17.20;;
76336;SDS011;65157;50.082;18.178;2023-01-23T00:18:40;36.70;;;14.60;;
76336;SDS011;65157;50.082;18.178;2023-01-23T00:21:08;40.20;;;15.50;;
76336;SDS011;65157;50.082;18.178;2023-01-23T00:23:36;48.40;;;17.90;;
76336;SDS011;65157;50.082;18.178;2023-01-23T00:26:07;48.20;;;19.10;;
76336;SDS011;65157;50.082;18.178;2023-01-23T00:28:36;50.20;;;19.70;;
76336;SDS011;65157;50.082;18.178;2023-01-23T00:31:07;44.80;;;17.50;;
76336;SDS011;65157;50.082;18.178;2023-01-23T00:33:39;50.00;;;18.90;;
76336;SDS011;65157;50.082;18.178;2023-01-23T00:36:06;48.00;;;18.10;;
76336;SDS011;65157;50.082;18.178;2023-01-23T00:41:00;49.90;;;18.20;;
76336;SDS011;65157;50.082;18.178;2023-01-23T00:45:55;43.40;;;15.70;;
76336;SDS011;65157;50.082;18.178;2023-01-23T00:48:22;47.30;;;17.30;;
76336;SDS011;65157;50.082;18.178;2023-01-23T00:50:49;45.40;;;17.50;;
76336;SDS011;65157;50.082;18.178;2023-01-23T00:53:16;50.30;;;17.00;;
76336;SDS011;65157;50.082;18.178;2023-01-23T00:55:43;52.40;;;17.70;;
76336;SDS011;65157;50.082;18.178;2023-01-23T00:58:10;47.20;;;17.60;;
76336;SDS011;65157;50.082;18.178;2023-01-23T01:00:37;49.70;;;18.40;;
76336;SDS011;65157;50.082;18.178;2023-01-23T01:05:31;47.00;;;16.50;;
76336;SDS011;65157;50.082;18.178;2023-01-23T01:07:58;46.20;;;16.00;;
76336;SDS011;65157;50.082;18.178;2023-01-23T01:10:25;50.00;;;19.50;;
76336;SDS011;65157;50.082;18.178;2023-01-23T01:12:55;53.40;;;19.10;;
76336;SDS011;65157;50.082;18.178;2023-01-23T01:15:23;44.40;;;18.20;;
76336;SDS011;65157;50.082;18.178;2023-01-23T01:17:49;48.80;;;16.50;;
76336;SDS011;65157;50.082;18.178;2023-01-23T01:20:19;41.70;;;15.70;;
76336;SDS011;65157;50.082;18.178;2023-01-23T01:22:49;43.00;;;15.70;;
76336;SDS011;65157;50.082;18.178;2023-01-23T01:25:16;42.10;;;15.40;;
76336;SDS011;65157;50.082;18.178;2023-01-23T01:27:42;45.20;;;15.30;;
76336;SDS011;65157;50.082;18.178;2023-01-23T01:30:09;42.90;;;15.30;;
76336;SDS011;65157;50.082;18.178;2023-01-23T01:35:04;39.50;;;14.80;;
76336;SDS011;65157;50.082;18.178;2023-01-23T01:37:35;40.70;;;14.60;;
76336;SDS011;65157;50.082;18.178;2023-01-23T01:40:07;37.90;;;14.80;;
76336;SDS011;65157;50.082;18.178;2023-01-23T01:42:38;37.90;;;15.50;;
76336;SDS011;65157;50.082;18.178;2023-01-23T01:45:06;41.10;;;15.50;;
76336;SDS011;65157;50.082;18.178;2023-01-23T01:47:53;39.60;;;15.80;;
76336;SDS011;65157;50.082;18.178;2023-01-23T01:50:19;38.70;;;14.40;;
76336;SDS011;65157;50.082;18.178;2023-01-23T01:52:46;35.50;;;14.40;;
76336;SDS011;65157;50.082;18.178;2023-01-23T01:55:13;36.10;;;14.10;;
76336;SDS011;65157;50.082;18.178;2023-01-23T02:00:14;38.60;;;14.90;;
76336;SDS011;65157;50.082;18.178;2023-01-23T02:05:31;37.80;;;14.30;;
76336;SDS011;65157;50.082;18.178;2023-01-23T02:08:06;37.90;;;14.30;;
76336;SDS011;65157;50.082;18.178;2023-01-23T02:10:41;34.70;;;14.20;;
76336;SDS011;65157;50.082;18.178;2023-01-23T02:13:20;37.20;;;14.60;;
76336;SDS011;65157;50.082;18.178;2023-01-23T02:15:50;38.80;;;15.60;;
76336;SDS011;65157;50.082;18.178;2023-01-23T02:18:18;36.70;;;14.00;;
76336;SDS011;65157;50.082;18.178;2023-01-23T02:20:47;37.30;;;14.70;;
76336;SDS011;65157;50.082;18.178;2023-01-23T02:23:38;35.70;;;12.00;;
76336;SDS011;65157;50.082;18.178;2023-01-23T02:26:19;32.20;;;12.00;;
76336;SDS011;65157;50.082;18.178;2023-01-23T02:28:50;34.60;;;13.00;;
76336;SDS011;65157;50.082;18.178;2023-01-23T02:31:18;34.70;;;13.10;;
76336;SDS011;65157;50.082;18.178;2023-01-23T02:33:46;34.70;;;12.90;;
76336;SDS011;65157;50.082;18.178;2023-01-23T02:36:23;33.30;;;13.00;;
76336;SDS011;65157;50.082;18.178;2023-01-23T02:41:34;31.60;;;13.70;;
76336;SDS011;65157;50.082;18.178;2023-01-23T02:44:07;31.10;;;12.50;;
76336;SDS011;65157;50.082;18.178;2023-01-23T02:46:38;33.20;;;12.40;;
76336;SDS011;65157;50.082;18.178;2023-01-23T02:49:05;32.90;;;14.10;;
76336;SDS011;65157;50.082;18.178;2023-01-23T02:51:32;31.30;;;13.10;;
76336;SDS011;65157;50.082;18.178;2023-01-23T02:53:59;30.70;;;13.10;;
76336;SDS011;65157;50.082;18.178;2023-01-23T02:56:26;31.00;;;13.00;;
76336;SDS011;65157;50.082;18.178;2023-01-23T02:58:52;30.40;;;11.40;;
76336;SDS011;65157;50.082;18.178;2023-01-23T03:01:38;33.30;;;12.30;;
76336;SDS011;65157;50.082;18.178;2023-01-23T03:04:05;32.00;;;13.50;;
76336;SDS011;65157;50.082;18.178;2023-01-23T03:06:33;37.60;;;14.10;;
76336;SDS011;65157;50.082;18.178;2023-01-23T03:09:07;31.80;;;13.30;;
76336;SDS011;65157;50.082;18.178;2023-01-23T03:11:36;33.40;;;13.00;;
76336;SDS011;65157;50.082;18.178;2023-01-23T03:14:05;33.50;;;12.60;;
76336;SDS011;65157;50.082;18.178;2023-01-23T03:16:34;33.30;;;13.40;;
76336;SDS011;65157;50.082;18.178;2023-01-23T03:19:02;28.70;;;11.40;;
76336;SDS011;65157;50.082;18.178;2023-01-23T03:21:31;34.10;;;13.30;;
76336;SDS011;65157;50.082;18.178;2023-01-23T03:23:58;31.00;;;12.30;;
76336;SDS011;65157;50.082;18.178;2023-01-23T03:26:25;34.80;;;13.50;;
76336;SDS011;65157;50.082;18.178;2023-01-23T03:28:52;32.40;;;12.80;;
76336;SDS011;65157;50.082;18.178;2023-01-23T03:31:37;31.20;;;12.70;;
76336;SDS011;65157;50.082;18.178;2023-01-23T03:34:04;33.50;;;13.00;;
76336;SDS011;65157;50.082;18.178;2023-01-23T03:36:31;34.80;;;14.60;;
76336;SDS011;65157;50.082;18.178;2023-01-23T03:38:58;33.00;;;12.00;;
76336;SDS011;65157;50.082;18.178;2023-01-23T03:41:43;31.10;;;14.10;;
76336;SDS011;65157;50.082;18.178;2023-01-23T03:44:10;28.20;;;12.70;;
76336;SDS011;65157;50.082;18.178;2023-01-23T03:46:38;29.60;;;12.00;;
76336;SDS011;65157;50.082;18.178;2023-01-23T03:49:04;31.70;;;12.50;;
76336;SDS011;65157;50.082;18.178;2023-01-23T03:51:31;32.70;;;12.80;;
76336;SDS011;65157;50.082;18.178;2023-01-23T03:53:57;35.60;;;13.40;;
76336;SDS011;65157;50.082;18.178;2023-01-23T03:56:24;35.70;;;14.20;;
76336;SDS011;65157;50.082;18.178;2023-01-23T03:58:50;34.30;;;13.20;;
76336;SDS011;65157;50.082;18.178;2023-01-23T04:01:17;34.40;;;14.00;;
76336;SDS011;65157;50.082;18.178;2023-01-23T04:03:44;37.30;;;12.90;;
76336;SDS011;65157;50.082;18.178;2023-01-23T04:06:11;35.70;;;12.70;;
76336;SDS011;65157;50.082;18.178;2023-01-23T04:08:37;31.40;;;12.80;;
76336;SDS011;65157;50.082;18.178;2023-01-23T04:11:05;32.30;;;13.20;;
76336;SDS011;65157;50.082;18.178;2023-01-23T04:13:33;30.70;;;11.90;;
76336;SDS011;65157;50.082;18.178;2023-01-23T04:16:00;26.10;;;10.40;;
76336;SDS011;65157;50.082;18.178;2023-01-23T04:18:28;27.10;;;11.70;;
76336;SDS011;65157;50.082;18.178;2023-01-23T04:20:54;26.50;;;11.10;;
76336;SDS011;65157;50.082;18.178;2023-01-23T04:23:21;25.80;;;10.00;;
76336;SDS011;65157;50.082;18.178;2023-01-23T04:25:49;23.80;;;9.30;;
76336;SDS011;65157;50.082;18.178;2023-01-23T04:28:16;21.10;;;9.40;;
76336;SDS011;65157;50.082;18.178;2023-01-23T04:30:44;18.50;;;8.50;;
76336;SDS011;65157;50.082;18.178;2023-01-23T04:33:11;20.50;;;9.00;;
76336;SDS011;65157;50.082;18.178;2023-01-23T04:35:38;18.70;;;8.70;;
76336;SDS011;65157;50.082;18.178;2023-01-23T04:38:04;17.00;;;8.00;;
76336;SDS011;65157;50.082;18.178;2023-01-23T04:40:31;16.40;;;8.20;;
76336;SDS011;65157;50.082;18.178;2023-01-23T04:42:57;16.20;;;7.70;;
76336;SDS011;65157;50.082;18.178;2023-01-23T04:45:24;15.40;;;7.20;;
76336;SDS011;65157;50.082;18.178;2023-01-23T04:47:51;16.00;;;7.80;;
76336;SDS011;65157;50.082;18.178;2023-01-23T04:50:17;14.80;;;7.00;;
76336;SDS011;65157;50.082;18.178;2023-01-23T04:52:44;14.50;;;7.20;;
76336;SDS011;65157;50.082;18.178;2023-01-23T04:55:10;16.90;;;7.50;;
76336;SDS011;65157;50.082;18.178;2023-01-23T04:57:37;14.80;;;7.50;;
76336;SDS011;65157;50.082;18.178;2023-01-23T05:00:04;16.40;;;7.10;;
76336;SDS011;65157;50.082;18.178;2023-01-23T05:02:31;14.90;;;7.50;;
76336;SDS011;65157;50.082;18.178;2023-01-23T05:04:57;15.80;;;7.60;;
76336;SDS011;65157;50.082;18.178;2023-01-23T05:07:24;15.90;;;7.60;;
76336;SDS011;65157;50.082;18.178;2023-01-23T05:09:51;13.10;;;7.00;;
76336;SDS011;65157;50.082;18.178;2023-01-23T05:12:17;16.60;;;6.90;;
76336;SDS011;65157;50.082;18.178;2023-01-23T05:14:44;14.30;;;7.00;;
76336;SDS011;65157;50.082;18.178;2023-01-23T05:17:10;16.60;;;8.30;;
76336;SDS011;65157;50.082;18.178;2023-01-23T05:19:37;17.10;;;7.50;;
76336;SDS011;65157;50.082;18.178;2023-01-23T05:22:03;15.00;;;7.10;;
76336;SDS011;65157;50.082;18.178;2023-01-23T05:24:30;14.50;;;7.70;;
76336;SDS011;65157;50.082;18.178;2023-01-23T05:26:56;15.20;;;7.90;;
76336;SDS011;65157;50.082;18.178;2023-01-23T05:29:23;15.30;;;7.70;;
76336;SDS011;65157;50.082;18.178;2023-01-23T05:31:50;16.10;;;7.70;;
76336;SDS011;65157;50.082;18.178;2023-01-23T05:34:16;16.10;;;8.40;;
76336;SDS011;65157;50.082;18.178;2023-01-23T05:36:43;21.20;;;9.80;;
76336;SDS011;65157;50.082;18.178;2023-01-23T05:39:10;26.20;;;11.40;;
76336;SDS011;65157;50.082;18.178;2023-01-23T05:41:36;27.20;;;11.60;;
76336;SDS011;65157;50.082;18.178;2023-01-23T05:44:03;29.20;;;12.40;;
76336;SDS011;65157;50.082;18.178;2023-01-23T05:46:29;26.70;;;12.40;;
76336;SDS011;65157;50.082;18.178;2023-01-23T05:48:56;29.70;;;12.60;;
76336;SDS011;65157;50.082;18.178;2023-01-23T05:51:22;31.80;;;12.80;;
76336;SDS011;65157;50.082;18.178;2023-01-23T05:53:57;31.70;;;12.50;;
76336;SDS011;65157;50.082;18.178;2023-01-23T05:56:24;27.70;;;12.80;;
76336;SDS011;65157;50.082;18.178;2023-01-23T05:58:50;31.20;;;12.80;;
76336;SDS011;65157;50.082;18.178;2023-01-23T06:01:17;28.30;;;12.60;;
76336;SDS011;65157;50.082;18.178;2023-01-23T06:03:44;27.70;;;12.10;;
76336;SDS011;65157;50.082;18.178;2023-01-23T06:11:05;29.70;;;11.20;;
76336;SDS011;65157;50.082;18.178;2023-01-23T06:13:32;26.90;;;11.50;;
76336;SDS011;65157;50.082;18.178;2023-01-23T06:15:58;26.40;;;10.80;;
76336;SDS011;65157;50.082;18.178;2023-01-23T06:18:25;26.50;;;11.20;;
76336;SDS011;65157;50.082;18.178;2023-01-23T06:20:56;27.90;;;11.30;;
76336;SDS011;65157;50.082;18.178;2023-01-23T06:23:23;26.80;;;12.00;;
76336;SDS011;65157;50.082;18.178;2023-01-23T06:25:50;25.90;;;11.90;;
76336;SDS011;65157;50.082;18.178;2023-01-23T06:28:16;32.90;;;11.70;;
76336;SDS011;65157;50.082;18.178;2023-01-23T06:30:43;26.60;;;9.50;;
76336;SDS011;65157;50.082;18.178;2023-01-23T06:33:09;29.00;;;12.10;;
76336;SDS011;65157;50.082;18.178;2023-01-23T06:35:36;30.50;;;11.10;;
76336;SDS011;65157;50.082;18.178;2023-01-23T06:38:02;24.10;;;10.60;;
76336;SDS011;65157;50.082;18.178;2023-01-23T06:40:29;31.30;;;13.00;;
76336;SDS011;65157;50.082;18.178;2023-01-23T06:42:56;30.00;;;13.00;;
76336;SDS011;65157;50.082;18.178;2023-01-23T06:45:22;33.70;;;13.70;;
76336;SDS011;65157;50.082;18.178;2023-01-23T06:47:50;31.50;;;12.60;;
76336;SDS011;65157;50.082;18.178;2023-01-23T06:50:18;33.70;;;13.50;;
76336;SDS011;65157;50.082;18.178;2023-01-23T06:52:44;33.30;;;12.60;;
76336;SDS011;65157;50.082;18.178;2023-01-23T06:55:11;31.50;;;11.90;;
76336;SDS011;65157;50.082;18.178;2023-01-23T06:57:37;39.50;;;12.90;;
76336;SDS011;65157;50.082;18.178;2023-01-23T07:00:06;33.60;;;12.00;;
76336;SDS011;65157;50.082;18.178;2023-01-23T07:02:34;32.90;;;13.20;;
76336;SDS011;65157;50.082;18.178;2023-01-23T07:05:02;35.40;;;13.30;;
76336;SDS011;65157;50.082;18.178;2023-01-23T07:07:29;42.10;;;15.00;;
76336;SDS011;65157;50.082;18.178;2023-01-23T07:09:56;37.00;;;13.90;;
76336;SDS011;65157;50.082;18.178;2023-01-23T07:12:22;33.20;;;12.50;;
76336;SDS011;65157;50.082;18.178;2023-01-23T07:14:49;31.70;;;11.60;;
76336;SDS011;65157;50.082;18.178;2023-01-23T07:17:15;33.00;;;12.30;;
76336;SDS011;65157;50.082;18.178;2023-01-23T07:19:42;31.30;;;11.80;;
76336;SDS011;65157;50.082;18.178;2023-01-23T07:22:09;30.50;;;12.20;;
76336;SDS011;65157;50.082;18.178;2023-01-23T07:24:35;29.70;;;12.00;;
76336;SDS011;65157;50.082;18.178;2023-01-23T07:27:02;30.60;;;11.80;;
76336;SDS011;65157;50.082;18.178;2023-01-23T07:29:29;27.30;;;10.50;;
76336;SDS011;65157;50.082;18.178;2023-01-23T07:31:57;28.10;;;12.10;;
76336;SDS011;65157;50.082;18.178;2023-01-23T07:34:26;30.00;;;11.40;;
76336;SDS011;65157;50.082;18.178;2023-01-23T07:36:53;30.50;;;12.80;;
76336;SDS011;65157;50.082;18.178;2023-01-23T07:39:19;41.90;;;14.90;;
76336;SDS011;65157;50.082;18.178;2023-01-23T07:41:46;29.50;;;10.60;;
76336;SDS011;65157;50.082;18.178;2023-01-23T07:44:15;32.90;;;13.00;;
76336;SDS011;65157;50.082;18.178;2023-01-23T07:46:45;38.80;;;16.50;;
76336;SDS011;65157;50.082;18.178;2023-01-23T07:49:13;29.70;;;12.90;;
76336;SDS011;65157;50.082;18.178;2023-01-23T07:51:40;32.80;;;13.40;;
76336;SDS011;65157;50.082;18.178;2023-01-23T07:54:07;32.50;;;13.30;;
76336;SDS011;65157;50.082;18.178;2023-01-23T07:56:34;31.10;;;12.60;;
76336;SDS011;65157;50.082;18.178;2023-01-23T07:59:00;30.40;;;12.20;;
76336;SDS011;65157;50.082;18.178;2023-01-23T08:01:27;28.50;;;10.60;;
76336;SDS011;65157;50.082;18.178;2023-01-23T08:03:53;28.00;;;12.20;;
76336;SDS011;65157;50.082;18.178;2023-01-23T08:06:20;29.30;;;11.30;;
76336;SDS011;65157;50.082;18.178;2023-01-23T08:08:47;30.80;;;12.30;;
76336;SDS011;65157;50.082;18.178;2023-01-23T08:11:14;28.20;;;12.70;;
76336;SDS011;65157;50.082;18.178;2023-01-23T08:13:41;27.50;;;12.20;;
76336;SDS011;65157;50.082;18.178;2023-01-23T08:16:08;28.60;;;12.10;;
76336;SDS011;65157;50.082;18.178;2023-01-23T08:18:34;28.70;;;12.30;;
76336;SDS011;65157;50.082;18.178;2023-01-23T08:21:01;31.20;;;11.60;;
76336;SDS011;65157;50.082;18.178;2023-01-23T08:23:29;28.60;;;12.40;;
76336;SDS011;65157;50.082;18.178;2023-01-23T08:25:59;28.90;;;11.80;;
76336;SDS011;65157;50.082;18.178;2023-01-23T08:28:27;29.10;;;13.10;;
76336;SDS011;65157;50.082;18.178;2023-01-23T08:30:54;25.10;;;11.20;;
76336;SDS011;65157;50.082;18.178;2023-01-23T08:33:20;26.30;;;11.60;;
76336;SDS011;65157;50.082;18.178;2023-01-23T08:35:48;24.90;;;11.10;;
76336;SDS011;65157;50.082;18.178;2023-01-23T08:38:16;23.70;;;11.10;;
76336;SDS011;65157;50.082;18.178;2023-01-23T08:40:45;28.60;;;11.50;;
76336;SDS011;65157;50.082;18.178;2023-01-23T08:43:13;25.00;;;11.90;;
76336;SDS011;65157;50.082;18.178;2023-01-23T08:45:41;26.90;;;11.10;;
76336;SDS011;65157;50.082;18.178;2023-01-23T08:48:14;28.10;;;11.00;;
76336;SDS011;65157;50.082;18.178;2023-01-23T08:50:42;31.00;;;13.30;;
76336;SDS011;65157;50.082;18.178;2023-01-23T08:53:08;32.70;;;12.70;;
76336;SDS011;65157;50.082;18.178;2023-01-23T08:55:35;29.60;;;13.30;;
76336;SDS011;65157;50.082;18.178;2023-01-23T08:58:04;33.30;;;13.90;;
76336;SDS011;65157;50.082;18.178;2023-01-23T09:00:32;29.80;;;12.50;;
76336;SDS011;65157;50.082;18.178;2023-01-23T09:02:59;30.30;;;12.90;;
76336;SDS011;65157;50.082;18.178;2023-01-23T09:05:27;32.90;;;13.50;;
76336;SDS011;65157;50.082;18.178;2023-01-23T09:07:55;30.70;;;13.80;;
76336;SDS011;65157;50.082;18.178;2023-01-23T09:10:22;32.70;;;12.50;;
76336;SDS011;65157;50.082;18.178;2023-01-23T09:12:51;39.30;;;14.30;;
76336;SDS011;65157;50.082;18.178;2023-01-23T09:15:21;32.90;;;14.00;;
76336;SDS011;65157;50.082;18.178;2023-01-23T09:17:48;33.80;;;12.90;;
76336;SDS011;65157;50.082;18.178;2023-01-23T09:20:15;35.20;;;13.90;;
76336;SDS011;65157;50.082;18.178;2023-01-23T09:22:42;35.30;;;14.00;;
76336;SDS011;65157;50.082;18.178;2023-01-23T09:25:09;39.00;;;15.10;;
76336;SDS011;65157;50.082;18.178;2023-01-23T09:27:36;40.00;;;13.80;;
76336;SDS011;65157;50.082;18.178;2023-01-23T09:30:03;39.20;;;15.30;;
76336;SDS011;65157;50.082;18.178;2023-01-23T09:32:30;40.60;;;14.30;;
76336;SDS011;65157;50.082;18.178;2023-01-23T09:34:56;45.60;;;15.40;;
76336;SDS011;65157;50.082;18.178;2023-01-23T09:37:23;41.50;;;14.20;;
76336;SDS011;65157;50.082;18.178;2023-01-23T09:39:50;42.90;;;15.30;;
76336;SDS011;65157;50.082;18.178;2023-01-23T09:42:18;43.90;;;15.40;;
76336;SDS011;65157;50.082;18.178;2023-01-23T09:44:49;44.10;;;14.50;;
76336;SDS011;65157;50.082;18.178;2023-01-23T09:47:23;41.90;;;16.90;;
76336;SDS011;65157;50.082;18.178;2023-01-23T09:50:14;44.60;;;16.40;;
76336;SDS011;65157;50.082;18.178;2023-01-23T09:52:51;41.10;;;16.00;;
76336;SDS011;65157;50.082;18.178;2023-01-23T09:56:10;42.20;;;15.40;;
76336;SDS011;65157;50.082;18.178;2023-01-23T09:58:40;39.60;;;14.80;;
76336;SDS011;65157;50.082;18.178;2023-01-23T10:01:12;39.60;;;14.50;;
76336;SDS011;65157;50.082;18.178;2023-01-23T10:03:39;42.90;;;16.50;;
76336;SDS011;65157;50.082;18.178;2023-01-23T10:16:32;42.00;;;14.30;;
76336;SDS011;65157;50.082;18.178;2023-01-23T10:24:46;38.80;;;14.90;;
76336;SDS011;65157;50.082;18.178;2023-01-23T10:32:57;37.70;;;14.00;;
76336;SDS011;65157;50.082;18.178;2023-01-23T10:38:26;32.20;;;13.20;;
76336;SDS011;65157;50.082;18.178;2023-01-23T10:40:54;29.70;;;12.30;;
76336;SDS011;65157;50.082;18.178;2023-01-23T10:43:40;34.10;;;12.60;;
76336;SDS011;65157;50.082;18.178;2023-01-23T10:46:12;30.10;;;12.10;;
76336;SDS011;65157;50.082;18.178;2023-01-23T10:48:45;31.50;;;12.40;;
76336;SDS011;65157;50.082;18.178;2023-01-23T10:54:10;31.60;;;13.80;;
76336;SDS011;65157;50.082;18.178;2023-01-23T10:59:37;35.40;;;15.00;;
76336;SDS011;65157;50.082;18.178;2023-01-23T11:02:20;36.10;;;13.80;;
76336;SDS011;65157;50.082;18.178;2023-01-23T11:04:52;37.40;;;14.10;;
76336;SDS011;65157;50.082;18.178;2023-01-23T11:07:21;34.90;;;15.00;;
76336;SDS011;65157;50.082;18.178;2023-01-23T11:09:59;34.30;;;13.30;;
76336;SDS011;65157;50.082;18.178;2023-01-23T11:12:47;41.20;;;14.60;;
76336;SDS011;65157;50.082;18.178;2023-01-23T11:17:51;35.20;;;14.90;;
76336;SDS011;65157;50.082;18.178;2023-01-23T11:20:21;35.60;;;15.00;;
76336;SDS011;65157;50.082;18.178;2023-01-23T11:41:23;38.30;;;13.70;;
76336;SDS011;65157;50.082;18.178;2023-01-23T11:43:57;28.00;;;11.80;;
76336;SDS011;65157;50.082;18.178;2023-01-23T11:49:18;34.50;;;13.90;;
76336;SDS011;65157;50.082;18.178;2023-01-23T11:55:20;36.60;;;15.20;;
76336;SDS011;65157;50.082;18.178;2023-01-23T12:15:45;37.50;;;15.90;;
76336;SDS011;65157;50.082;18.178;2023-01-23T12:21:18;29.30;;;13.10;;
76336;SDS011;65157;50.082;18.178;2023-01-23T12:26:23;39.10;;;15.80;;
76336;SDS011;65157;50.082;18.178;2023-01-23T12:36:57;44.90;;;16.50;;
76336;SDS011;65157;50.082;18.178;2023-01-23T12:39:46;30.90;;;12.80;;
76336;SDS011;65157;50.082;18.178;2023-01-23T12:42:26;45.40;;;16.90;;
76336;SDS011;65157;50.082;18.178;2023-01-23T12:45:05;80.30;;;31.60;;
76336;SDS011;65157;50.082;18.178;2023-01-23T12:47:34;56.20;;;23.10;;
76336;SDS011;65157;50.082;18.178;2023-01-23T12:50:18;55.90;;;25.60;;
76336;SDS011;65157;50.082;18.178;2023-01-23T12:52:57;54.50;;;21.50;;
76336;SDS011;65157;50.082;18.178;2023-01-23T12:58:01;46.30;;;16.60;;
76336;SDS011;65157;50.082;18.178;2023-01-23T13:00:48;48.00;;;18.50;;
76336;SDS011;65157;50.082;18.178;2023-01-23T13:06:18;39.40;;;16.60;;
76336;SDS011;65157;50.082;18.178;2023-01-23T13:14:47;44.90;;;16.80;;
76336;SDS011;65157;50.082;18.178;2023-01-23T13:23:32;38.40;;;14.60;;
76336;SDS011;65157;50.082;18.178;2023-01-23T13:28:46;40.70;;;14.90;;
76336;SDS011;65157;50.082;18.178;2023-01-23T13:36:41;43.80;;;17.50;;
76336;SDS011;65157;50.082;18.178;2023-01-23T13:41:38;41.80;;;16.00;;
76336;SDS011;65157;50.082;18.178;2023-01-23T13:44:18;44.10;;;15.70;;
76336;SDS011;65157;50.082;18.178;2023-01-23T13:50:07;44.90;;;16.40;;
76336;SDS011;65157;50.082;18.178;2023-01-23T13:52:44;46.70;;;17.40;;
76336;SDS011;65157;50.082;18.178;2023-01-23T13:55:41;41.20;;;15.00;;
76336;SDS011;65157;50.082;18.178;2023-01-23T13:58:29;38.80;;;15.30;;
76336;SDS011;65157;50.082;18.178;2023-01-23T14:01:19;37.70;;;14.60;;
76336;SDS011;65157;50.082;18.178;2023-01-23T14:04:13;37.20;;;13.50;;
76336;SDS011;65157;50.082;18.178;2023-01-23T14:07:03;34.50;;;14.40;;
76336;SDS011;65157;50.082;18.178;2023-01-23T14:09:30;33.00;;;13.60;;
76336;SDS011;65157;50.082;18.178;2023-01-23T14:11:58;32.50;;;13.80;;
76336;SDS011;65157;50.082;18.178;2023-01-23T14:14:34;32.80;;;13.90;;
76336;SDS011;65157;50.082;18.178;2023-01-23T14:17:21;36.30;;;14.40;;
76336;SDS011;65157;50.082;18.178;2023-01-23T14:22:21;35.10;;;14.10;;
76336;SDS011;65157;50.082;18.178;2023-01-23T14:24:49;32.60;;;13.20;;
76336;SDS011;65157;50.082;18.178;2023-01-23T14:27:36;32.30;;;13.60;;
76336;SDS011;65157;50.082;18.178;2023-01-23T14:30:13;37.20;;;14.50;;
76336;SDS011;65157;50.082;18.178;2023-01-23T14:32:41;36.50;;;15.60;;
76336;SDS011;65157;50.082;18.178;2023-01-23T14:35:15;43.90;;;17.40;;
76336;SDS011;65157;50.082;18.178;2023-01-23T14:37:53;44.60;;;15.80;;
76336;SDS011;65157;50.082;18.178;2023-01-23T14:40:22;36.60;;;15.10;;
76336;SDS011;65157;50.082;18.178;2023-01-23T14:43:00;36.60;;;15.40;;
76336;SDS011;65157;50.082;18.178;2023-01-23T14:45:30;34.90;;;14.90;;
76336;SDS011;65157;50.082;18.178;2023-01-23T14:47:57;41.00;;;15.10;;
76336;SDS011;65157;50.082;18.178;2023-01-23T14:50:26;36.60;;;14.70;;
76336;SDS011;65157;50.082;18.178;2023-01-23T14:53:00;40.00;;;16.40;;
76336;SDS011;65157;50.082;18.178;2023-01-23T14:55:29;39.00;;;15.80;;
76336;SDS011;65157;50.082;18.178;2023-01-23T14:57:59;43.20;;;15.20;;
76336;SDS011;65157;50.082;18.178;2023-01-23T15:00:28;47.10;;;15.90;;
76336;SDS011;65157;50.082;18.178;2023-01-23T15:02:56;40.40;;;16.50;;
76336;SDS011;65157;50.082;18.178;2023-01-23T15:05:24;38.10;;;13.70;;
76336;SDS011;65157;50.082;18.178;2023-01-23T15:10:23;37.80;;;15.50;;
76336;SDS011;65157;50.082;18.178;2023-01-23T15:15:25;38.90;;;15.10;;
76336;SDS011;65157;50.082;18.178;2023-01-23T15:17:52;33.60;;;15.00;;
76336;SDS011;65157;50.082;18.178;2023-01-23T15:20:26;40.10;;;15.10;;
76336;SDS011;65157;50.082;18.178;2023-01-23T15:22:53;34.60;;;14.40;;
76336;SDS011;65157;50.082;18.178;2023-01-23T15:25:26;38.40;;;15.20;;
76336;SDS011;65157;50.082;18.178;2023-01-23T15:27:55;40.10;;;14.60;;
76336;SDS011;65157;50.082;18.178;2023-01-23T15:33:01;34.50;;;14.50;;
76336;SDS011;65157;50.082;18.178;2023-01-23T15:35:34;40.90;;;15.00;;
76336;SDS011;65157;50.082;18.178;2023-01-23T15:38:05;41.40;;;16.60;;
76336;SDS011;65157;50.082;18.178;2023-01-23T15:40:32;40.90;;;15.20;;
76336;SDS011;65157;50.082;18.178;2023-01-23T15:45:42;37.10;;;15.00;;
76336;SDS011;65157;50.082;18.178;2023-01-23T15:48:09;36.80;;;15.30;;
76336;SDS011;65157;50.082;18.178;2023-01-23T15:50:36;39.20;;;15.40;;
76336;SDS011;65157;50.082;18.178;2023-01-23T15:53:02;35.10;;;14.80;;
76336;SDS011;65157;50.082;18.178;2023-01-23T15:55:29;40.40;;;15.40;;
76336;SDS011;65157;50.082;18.178;2023-01-23T15:57:56;28.30;;;11.30;;
76336;SDS011;65157;50.082;18.178;2023-01-23T16:00:24;39.70;;;15.40;;
76336;SDS011;65157;50.082;18.178;2023-01-23T16:02:52;32.60;;;13.90;;
76336;SDS011;65157;50.082;18.178;2023-01-23T16:05:21;43.40;;;17.00;;
76336;SDS011;65157;50.082;18.178;2023-01-23T16:07:49;33.30;;;13.70;;
76336;SDS011;65157;50.082;18.178;2023-01-23T16:12:44;45.60;;;16.10;;
76336;SDS011;65157;50.082;18.178;2023-01-23T16:15:15;38.30;;;15.40;;
76336;SDS011;65157;50.082;18.178;2023-01-23T16:17:45;43.40;;;14.10;;
76336;SDS011;65157;50.082;18.178;2023-01-23T16:20:13;40.30;;;14.90;;
76336;SDS011;65157;50.082;18.178;2023-01-23T16:22:41;40.20;;;15.00;;
76336;SDS011;65157;50.082;18.178;2023-01-23T16:25:18;44.20;;;15.70;;
76336;SDS011;65157;50.082;18.178;2023-01-23T16:27:56;49.20;;;17.90;;
76336;SDS011;65157;50.082;18.178;2023-01-23T16:30:23;49.10;;;19.30;;
76336;SDS011;65157;50.082;18.178;2023-01-23T16:32:53;48.80;;;17.30;;
76336;SDS011;65157;50.082;18.178;2023-01-23T16:35:21;52.40;;;19.60;;
76336;SDS011;65157;50.082;18.178;2023-01-23T16:37:49;45.20;;;17.10;;
76336;SDS011;65157;50.082;18.178;2023-01-23T16:40:22;50.50;;;19.10;;
76336;SDS011;65157;50.082;18.178;2023-01-23T16:42:51;44.00;;;16.60;;
76336;SDS011;65157;50.082;18.178;2023-01-23T16:45:23;44.80;;;18.10;;
76336;SDS011;65157;50.082;18.178;2023-01-23T16:47:53;43.30;;;16.80;;
76336;SDS011;65157;50.082;18.178;2023-01-23T16:50:21;45.10;;;18.10;;
76336;SDS011;65157;50.082;18.178;2023-01-23T16:52:54;43.60;;;16.40;;
76336;SDS011;65157;50.082;18.178;2023-01-23T16:55:29;44.90;;;16.60;;
76336;SDS011;65157;50.082;18.178;2023-01-23T16:57:59;50.70;;;18.30;;
76336;SDS011;65157;50.082;18.178;2023-01-23T17:00:27;46.10;;;16.80;;
76336;SDS011;65157;50.082;18.178;2023-01-23T17:02:55;44.70;;;15.80;;
76336;SDS011;65157;50.082;18.178;2023-01-23T17:05:25;47.50;;;18.40;;